Liberty, MO (64068)

5:12 AM CDT on October 23, 2014 (GMT -0500)
District Administration Center | Change Station
CLOSE
Current Station
Personal Weather Station
Location: Liberty, MO
Elevation: 874 ft
Nearby Weather Stations

Elev 874 ft 39.24 °N, 94.45 °W | Updated 4 seconds ago

Rain
Rain
57.0 °F
Feels Like 57.0 °F
N
6.0
Wind Variable Wind from South
Gusts 6.0 mph

Today
High -- | Low -- °F
--% Chance of Precip.
Yesterday
High -- | Low -- °F
Precip. -- in
7:35 AM 6:27 PM
Waning Crescent, 0% visible
Pressure 30.12 in
Visibility 7.0 miles
Clouds Mostly Cloudy 2200 ft
Mostly Cloudy 3100 ft
Overcast 5000 ft
Dew Point 56 °F
Humidity 98%
Rainfall 0.09 in
Snow Depth Not available.
UV 0 out of 12
Pollen 2.50 out of 12
Ozone Good
PM2.5 Moderate
Flu Activity No Activity
METAR KGPH 231015Z AUTO 00000KT 7SM RA BKN022 BKN031 OVC050 12/12 A3012 RMK AO2

More Conditions Fewer Conditions

Pressure 30.12 in
Visibility 7.0 miles
Clouds Mostly Cloudy 2200 ft
Mostly Cloudy 3100 ft
Overcast 5000 ft
Dew Point 56 °F
Humidity 98%
Rainfall 0.09 in
Snow Depth Not available.
UV 0 out of 12
Pollen 2.50 out of 12
Ozone Good
PM2.5 Moderate
Flu Activity No Activity
METAR KGPH 231015Z AUTO 00000KT 7SM RA BKN022 BKN031 OVC050 12/12 A3012 RMK AO2

More Conditions Fewer Conditions

10-Day Weather Forecast

Almanac

Astronomy

Oct. 23, 2014 Rise Set
Actual Time 7:35 AM CDT 6:27 PM CDT
Civil Twilight 7:08 AM CDT 6:54 PM CDT
Nautical Twilight 6:37 AM CDT 7:26 PM CDT
Astronomical Twilight 6:06 AM CDT 7:57 PM CDT
Moon 7:16 AM CDT 6:29 PM CDT
Length of Visible Light 11h 46m
Length of Day
10h 51m
Tomorrow will be 2m 23s shorter.
Waning Crescent, 0% of the Moon is Illuminated
Today
Waning Crescent
Oct 23
New
Oct 30
First Quarter
Nov 6
Full
Nov 14
Last Quarter

Today's Extremes

State Highs State Lows

Community

WunderPhotos

Upload Photos

1,764,202 photos uploaded!

Nearby

Air Quality

  Air Quality AQ Index Pollutant
Yesterday Moderate
PM2.5
Yesterday Good
OZONE
Current Moderate
PM2.5
Current Good
OZONE
Thursday Good
OZONE

Snow Depth

Station Depth Elevation
No new snow has been reported.

Earthquake Activity

City Distance Mag. Time & Date
No recent earthquake activity has been reported nearby.
Minimum magnitude displayed is 2.5.

Coastal Water Temperatures

Place Temperature
No Stations Reporting

Nearby Weather Stations